Hlavní strana
METAR-TAF:

METAR-TAF

Letiště :

Havana, Kuba

zeměpisná šířka: 22-59N, zeměpisná délka: 082-24W, výška: 59 m

Aktuální stav počasí

Zpráva byla vytvořena před 12 minutami, v 11:55 UTC
Bezvětří
Teplota 9°C
Vlhkost vzduchu 100%
Tlak 1022 hPa
Viditelnost: 9000 m
Skoro jasno ve výšce 3000 ft

METAR: MUHA 121155Z 00000KT 9000 FEW030 09/09 Q1022

Čas: 07:07 (12:07 UTC)

Předpověď počasí

Zpráva byla vytvořena před 1 hodinou a 7 minutami, v 11:00 UTC
Předpověď platná od 12 v 12 UTC do 13 v 12 UTC
Severovýchodní vítr 3 kt
Viditelnost: 9000 m
Skoro jasno ve výšce 3000 ft
Změna
od 12 v 13 UTC do 12 v 15 UTC
Východní vítr 13 kt
Změna
od 13 v 01 UTC do 13 v 03 UTC
vítr z různých směrů 3 kt

TAF: MUHA 121100Z 1212/1312 05003KT 9000 FEW030 BECMG 1213/1215 08013KT BECMG 1301/1303 VRB03KT

Stav a předpovědi počasí z více než 4 000 letišť (zprávy METAR a TAF).

Červené a žluté tečky na mapě představují dostupné meteorologické stanice.

Když kurzor umístíte na tečku, zobrazí se název stanice.

Pak kliknutím zobrazíte stav a předpověď počasí.

Chcete-li změnit mapu, kliknutím na zelené tlačítko se znaménkem +mapu přiblížíte, kliknutím na zelené tlačítko se znaménkem – mapu oddálíte a kliknutím na zelené šipky přejdete na sousední mapy.


METAR-TAF: